Madison, AL

2:54 PM CST on January 17, 2017 (GMT -0600)
Taylors Crossing | | Change Station

Elev 650 ft 34.70 °N, 86.79 °W | Updated 6 seconds ago

Overcast
Overcast
67.6 °F
Feels Like 67.6 °F
N
2.0
Wind Variable Wind from South

Today
High -- | Low -- °F
--% Chance of Precip.
Yesterday
High -- | Low -- °F
Precip. -- in
Pressure 30.05 in
Visibility 10.0 miles
Clouds Scattered Clouds 2800 ft
Scattered Clouds 4400 ft
Overcast 5500 ft
Dew Point 62 °F
Humidity 83%
Rainfall 0.00 in
Snow Depth Not available.
6:53 AM 5:01 PM
Waning Gibbous, 70% visible
METAR KHSV 171953Z 22015KT 10SM SCT028 SCT044 OVC055 22/16 A3007 RMK AO2 RAB04E31 SLP176 P0000 T02170161
Pressure 30.05 in
Visibility 10.0 miles
Clouds Scattered Clouds 2800 ft
Scattered Clouds 4400 ft
Overcast 5500 ft
Dew Point 62 °F
Humidity 83%
Rainfall 0.00 in
Snow Depth Not available.
6:53 AM 5:01 PM
Waning Gibbous, 70% visible
METAR KHSV 171953Z 22015KT 10SM SCT028 SCT044 OVC055 22/16 A3007 RMK AO2 RAB04E31 SLP176 P0000 T02170161

Get Your Daily Forecast Email!

Thanks for signing up!

Be on the lookout for a verification email in your inbox.

You'll start receiving the daily forecast at 8 AM.

×

10-Day Weather Forecast

Almanac

Astronomy

Jan. 17, 2017 Rise Set
Actual Time
Civil Twilight
Nautical Twilight
Astronomical Twilight
Moon
Length of Visible Light
Length of Day
Tomorrow will be .
, % of the Moon is Illuminated

Today's Extremes

State Highs State Lows

Community

WunderPhotos

Upload Photos

1,962,540 photos uploaded!

WunderBlog® & News

Nearby

Air Quality

  Air Quality AQ Index Pollutant
Not available.

Snow Depth

Station Depth Elevation

Earthquake Activity

City Distance Mag. Time & Date
Minimum magnitude displayed is 2.5.

Coastal Water Temperatures

Place Temperature

Stations

Nearby Weather Stations

Station Location Temp. Windchill Dew Point Humidity Wind Precip. Elev Updated Type
                   

Watches & Warnings

There are currently no watches in effect.